sensor_id;sensor_type;location;lat;lon;timestamp;P1;durP1;ratioP1;P2;durP2;ratioP2
85523;SDS011;75932;48.616;9.270;2024-02-28T00:02:06;24.80;;;15.67;;
85523;SDS011;75932;48.616;9.270;2024-02-28T00:04:31;27.80;;;15.90;;
85523;SDS011;75932;48.616;9.270;2024-02-28T00:06:56;29.07;;;16.77;;
85523;SDS011;75932;48.616;9.270;2024-02-28T00:09:22;26.48;;;17.15;;
85523;SDS011;75932;48.616;9.270;2024-02-28T00:11:49;24.83;;;14.32;;
85523;SDS011;75932;48.616;9.270;2024-02-28T00:14:15;25.10;;;14.50;;
85523;SDS011;75932;48.616;9.270;2024-02-28T00:16:44;24.17;;;15.02;;
85523;SDS011;75932;48.616;9.270;2024-02-28T00:19:10;26.77;;;15.32;;
85523;SDS011;75932;48.616;9.270;2024-02-28T00:21:39;24.10;;;16.13;;
85523;SDS011;75932;48.616;9.270;2024-02-28T00:24:05;25.13;;;16.98;;
85523;SDS011;75932;48.616;9.270;2024-02-28T00:26:31;28.95;;;15.13;;
85523;SDS011;75932;48.616;9.270;2024-02-28T00:28:56;30.58;;;15.40;;
85523;SDS011;75932;48.616;9.270;2024-02-28T00:31:22;25.17;;;16.00;;
85523;SDS011;75932;48.616;9.270;2024-02-28T00:33:47;27.92;;;16.80;;
85523;SDS011;75932;48.616;9.270;2024-02-28T00:36:13;26.95;;;16.55;;
85523;SDS011;75932;48.616;9.270;2024-02-28T00:38:38;26.70;;;13.40;;
85523;SDS011;75932;48.616;9.270;2024-02-28T00:41:04;28.40;;;15.30;;
85523;SDS011;75932;48.616;9.270;2024-02-28T00:43:29;26.33;;;16.63;;
85523;SDS011;75932;48.616;9.270;2024-02-28T00:45:54;24.88;;;15.98;;
85523;SDS011;75932;48.616;9.270;2024-02-28T00:48:20;26.55;;;16.20;;
85523;SDS011;75932;48.616;9.270;2024-02-28T00:50:46;25.05;;;15.55;;
85523;SDS011;75932;48.616;9.270;2024-02-28T00:53:12;25.17;;;15.03;;
85523;SDS011;75932;48.616;9.270;2024-02-28T00:55:37;25.03;;;16.37;;
85523;SDS011;75932;48.616;9.270;2024-02-28T00:58:02;25.37;;;15.53;;
85523;SDS011;75932;48.616;9.270;2024-02-28T01:00:28;24.25;;;15.77;;
85523;SDS011;75932;48.616;9.270;2024-02-28T01:02:53;26.57;;;16.37;;
85523;SDS011;75932;48.616;9.270;2024-02-28T01:05:18;25.80;;;16.60;;
85523;SDS011;75932;48.616;9.270;2024-02-28T01:07:44;25.80;;;17.63;;
85523;SDS011;75932;48.616;9.270;2024-02-28T01:10:09;27.67;;;14.73;;
85523;SDS011;75932;48.616;9.270;2024-02-28T01:12:35;24.73;;;15.95;;
85523;SDS011;75932;48.616;9.270;2024-02-28T01:15:02;24.67;;;14.90;;
85523;SDS011;75932;48.616;9.270;2024-02-28T01:17:28;26.35;;;15.20;;
85523;SDS011;75932;48.616;9.270;2024-02-28T01:19:53;25.87;;;15.93;;
85523;SDS011;75932;48.616;9.270;2024-02-28T01:22:19;25.43;;;13.73;;
85523;SDS011;75932;48.616;9.270;2024-02-28T01:24:44;27.75;;;17.55;;
85523;SDS011;75932;48.616;9.270;2024-02-28T01:27:09;24.50;;;13.67;;
85523;SDS011;75932;48.616;9.270;2024-02-28T01:29:35;25.03;;;14.00;;
85523;SDS011;75932;48.616;9.270;2024-02-28T01:32:00;25.30;;;16.58;;
85523;SDS011;75932;48.616;9.270;2024-02-28T01:34:26;27.87;;;16.33;;
85523;SDS011;75932;48.616;9.270;2024-02-28T01:36:51;28.25;;;14.35;;
85523;SDS011;75932;48.616;9.270;2024-02-28T01:39:17;25.45;;;16.05;;
85523;SDS011;75932;48.616;9.270;2024-02-28T01:41:49;27.95;;;15.77;;
85523;SDS011;75932;48.616;9.270;2024-02-28T01:44:16;24.30;;;15.02;;
85523;SDS011;75932;48.616;9.270;2024-02-28T01:46:41;27.03;;;16.20;;
85523;SDS011;75932;48.616;9.270;2024-02-28T01:49:06;25.23;;;14.27;;
85523;SDS011;75932;48.616;9.270;2024-02-28T01:51:32;24.30;;;14.05;;
85523;SDS011;75932;48.616;9.270;2024-02-28T01:53:57;26.42;;;15.57;;
85523;SDS011;75932;48.616;9.270;2024-02-28T01:56:24;23.88;;;14.50;;
85523;SDS011;75932;48.616;9.270;2024-02-28T01:58:50;28.23;;;17.33;;
85523;SDS011;75932;48.616;9.270;2024-02-28T02:01:16;24.10;;;15.45;;
85523;SDS011;75932;48.616;9.270;2024-02-28T02:03:42;28.40;;;17.30;;
85523;SDS011;75932;48.616;9.270;2024-02-28T02:06:08;26.55;;;14.93;;
85523;SDS011;75932;48.616;9.270;2024-02-28T02:08:33;25.73;;;15.67;;
85523;SDS011;75932;48.616;9.270;2024-02-28T02:10:59;28.27;;;15.63;;
85523;SDS011;75932;48.616;9.270;2024-02-28T02:13:25;23.80;;;14.35;;
85523;SDS011;75932;48.616;9.270;2024-02-28T02:15:50;28.80;;;16.67;;
85523;SDS011;75932;48.616;9.270;2024-02-28T02:18:15;30.53;;;17.93;;
85523;SDS011;75932;48.616;9.270;2024-02-28T02:20:42;28.27;;;16.30;;
85523;SDS011;75932;48.616;9.270;2024-02-28T02:23:09;27.27;;;17.40;;
85523;SDS011;75932;48.616;9.270;2024-02-28T02:25:47;28.35;;;16.35;;
85523;SDS011;75932;48.616;9.270;2024-02-28T02:28:13;28.08;;;15.48;;
85523;SDS011;75932;48.616;9.270;2024-02-28T02:30:40;29.13;;;15.05;;
85523;SDS011;75932;48.616;9.270;2024-02-28T02:33:06;27.10;;;15.80;;
85523;SDS011;75932;48.616;9.270;2024-02-28T02:35:33;28.48;;;16.05;;
85523;SDS011;75932;48.616;9.270;2024-02-28T02:37:58;26.48;;;15.13;;
85523;SDS011;75932;48.616;9.270;2024-02-28T02:40:24;28.42;;;14.52;;
85523;SDS011;75932;48.616;9.270;2024-02-28T02:42:49;25.97;;;14.93;;
85523;SDS011;75932;48.616;9.270;2024-02-28T02:45:15;27.98;;;15.85;;
85523;SDS011;75932;48.616;9.270;2024-02-28T02:47:41;26.42;;;16.73;;
85523;SDS011;75932;48.616;9.270;2024-02-28T02:50:08;27.25;;;16.77;;
85523;SDS011;75932;48.616;9.270;2024-02-28T02:52:34;30.10;;;16.23;;
85523;SDS011;75932;48.616;9.270;2024-02-28T02:54:59;26.57;;;16.57;;
85523;SDS011;75932;48.616;9.270;2024-02-28T02:57:24;30.50;;;15.67;;
85523;SDS011;75932;48.616;9.270;2024-02-28T02:59:50;29.20;;;17.53;;
85523;SDS011;75932;48.616;9.270;2024-02-28T03:02:15;28.50;;;16.00;;
85523;SDS011;75932;48.616;9.270;2024-02-28T03:04:40;26.70;;;16.03;;
85523;SDS011;75932;48.616;9.270;2024-02-28T03:07:05;27.73;;;15.47;;
85523;SDS011;75932;48.616;9.270;2024-02-28T03:09:31;29.47;;;16.67;;
85523;SDS011;75932;48.616;9.270;2024-02-28T03:11:56;27.87;;;17.50;;
85523;SDS011;75932;48.616;9.270;2024-02-28T03:14:23;27.13;;;15.00;;
85523;SDS011;75932;48.616;9.270;2024-02-28T03:16:50;27.08;;;15.45;;
85523;SDS011;75932;48.616;9.270;2024-02-28T03:19:15;28.00;;;16.23;;
85523;SDS011;75932;48.616;9.270;2024-02-28T03:21:41;30.00;;;16.52;;
85523;SDS011;75932;48.616;9.270;2024-02-28T03:24:06;26.87;;;16.87;;
85523;SDS011;75932;48.616;9.270;2024-02-28T03:26:32;29.10;;;15.93;;
85523;SDS011;75932;48.616;9.270;2024-02-28T03:28:57;27.92;;;18.60;;
85523;SDS011;75932;48.616;9.270;2024-02-28T03:31:23;30.90;;;16.27;;
85523;SDS011;75932;48.616;9.270;2024-02-28T03:33:48;29.67;;;17.10;;
85523;SDS011;75932;48.616;9.270;2024-02-28T03:36:13;26.60;;;15.38;;
85523;SDS011;75932;48.616;9.270;2024-02-28T03:38:39;28.20;;;15.47;;
85523;SDS011;75932;48.616;9.270;2024-02-28T03:41:04;28.03;;;16.20;;
85523;SDS011;75932;48.616;9.270;2024-02-28T03:43:30;30.08;;;17.80;;
85523;SDS011;75932;48.616;9.270;2024-02-28T03:45:56;29.98;;;16.67;;
85523;SDS011;75932;48.616;9.270;2024-02-28T03:48:21;29.60;;;16.60;;
85523;SDS011;75932;48.616;9.270;2024-02-28T03:50:46;26.13;;;16.93;;
85523;SDS011;75932;48.616;9.270;2024-02-28T03:53:12;25.10;;;15.55;;
85523;SDS011;75932;48.616;9.270;2024-02-28T03:55:37;29.27;;;16.73;;
85523;SDS011;75932;48.616;9.270;2024-02-28T03:58:02;31.50;;;16.20;;
85523;SDS011;75932;48.616;9.270;2024-02-28T04:00:28;29.42;;;17.25;;
85523;SDS011;75932;48.616;9.270;2024-02-28T04:02:53;30.80;;;16.60;;
85523;SDS011;75932;48.616;9.270;2024-02-28T04:05:18;28.93;;;16.87;;
85523;SDS011;75932;48.616;9.270;2024-02-28T04:07:44;25.80;;;15.93;;
85523;SDS011;75932;48.616;9.270;2024-02-28T04:10:09;28.53;;;17.17;;
85523;SDS011;75932;48.616;9.270;2024-02-28T04:12:36;30.98;;;18.55;;
85523;SDS011;75932;48.616;9.270;2024-02-28T04:15:01;29.42;;;17.83;;
85523;SDS011;75932;48.616;9.270;2024-02-28T04:17:27;32.63;;;19.30;;
85523;SDS011;75932;48.616;9.270;2024-02-28T04:19:52;34.10;;;16.70;;
85523;SDS011;75932;48.616;9.270;2024-02-28T04:22:18;34.07;;;17.30;;
85523;SDS011;75932;48.616;9.270;2024-02-28T04:24:43;32.40;;;16.63;;
85523;SDS011;75932;48.616;9.270;2024-02-28T04:27:08;29.30;;;17.20;;
85523;SDS011;75932;48.616;9.270;2024-02-28T04:29:36;28.52;;;16.30;;
85523;SDS011;75932;48.616;9.270;2024-02-28T04:32:01;31.42;;;17.42;;
85523;SDS011;75932;48.616;9.270;2024-02-28T04:34:27;31.30;;;17.37;;
85523;SDS011;75932;48.616;9.270;2024-02-28T04:36:52;31.13;;;16.37;;
85523;SDS011;75932;48.616;9.270;2024-02-28T04:39:17;32.43;;;16.43;;
85523;SDS011;75932;48.616;9.270;2024-02-28T04:41:43;24.23;;;13.60;;
85523;SDS011;75932;48.616;9.270;2024-02-28T04:44:08;32.43;;;17.27;;
85523;SDS011;75932;48.616;9.270;2024-02-28T04:46:34;32.93;;;15.33;;
85523;SDS011;75932;48.616;9.270;2024-02-28T04:48:59;35.25;;;18.52;;
85523;SDS011;75932;48.616;9.270;2024-02-28T04:51:25;32.03;;;18.50;;
85523;SDS011;75932;48.616;9.270;2024-02-28T04:53:50;28.97;;;17.40;;
85523;SDS011;75932;48.616;9.270;2024-02-28T04:56:15;31.07;;;15.93;;
85523;SDS011;75932;48.616;9.270;2024-02-28T04:58:41;27.00;;;14.10;;
85523;SDS011;75932;48.616;9.270;2024-02-28T05:01:06;28.97;;;16.17;;
85523;SDS011;75932;48.616;9.270;2024-02-28T05:03:31;30.37;;;17.37;;
85523;SDS011;75932;48.616;9.270;2024-02-28T05:05:56;32.67;;;17.60;;
85523;SDS011;75932;48.616;9.270;2024-02-28T05:08:22;30.98;;;17.33;;
85523;SDS011;75932;48.616;9.270;2024-02-28T05:10:47;33.40;;;17.20;;
85523;SDS011;75932;48.616;9.270;2024-02-28T05:13:15;31.05;;;16.98;;
85523;SDS011;75932;48.616;9.270;2024-02-28T05:15:40;29.83;;;16.10;;
85523;SDS011;75932;48.616;9.270;2024-02-28T05:18:05;28.80;;;14.77;;
85523;SDS011;75932;48.616;9.270;2024-02-28T05:20:31;29.90;;;17.73;;
85523;SDS011;75932;48.616;9.270;2024-02-28T05:22:56;30.27;;;18.63;;
85523;SDS011;75932;48.616;9.270;2024-02-28T05:25:22;34.77;;;16.43;;
85523;SDS011;75932;48.616;9.270;2024-02-28T05:27:47;27.20;;;16.02;;
85523;SDS011;75932;48.616;9.270;2024-02-28T05:30:12;31.47;;;15.17;;
85523;SDS011;75932;48.616;9.270;2024-02-28T05:32:41;29.65;;;17.65;;
85523;SDS011;75932;48.616;9.270;2024-02-28T05:35:06;28.87;;;16.50;;
85523;SDS011;75932;48.616;9.270;2024-02-28T05:37:32;30.70;;;16.25;;
85523;SDS011;75932;48.616;9.270;2024-02-28T05:39:57;27.25;;;15.05;;
85523;SDS011;75932;48.616;9.270;2024-02-28T05:42:23;29.52;;;16.30;;
85523;SDS011;75932;48.616;9.270;2024-02-28T05:44:49;26.92;;;16.08;;
85523;SDS011;75932;48.616;9.270;2024-02-28T05:47:15;29.25;;;16.23;;
85523;SDS011;75932;48.616;9.270;2024-02-28T05:49:40;30.23;;;16.77;;
85523;SDS011;75932;48.616;9.270;2024-02-28T05:52:05;29.17;;;15.43;;
85523;SDS011;75932;48.616;9.270;2024-02-28T05:54:31;28.00;;;16.75;;
85523;SDS011;75932;48.616;9.270;2024-02-28T05:56:56;31.45;;;15.50;;
85523;SDS011;75932;48.616;9.270;2024-02-28T05:59:22;29.20;;;17.05;;
85523;SDS011;75932;48.616;9.270;2024-02-28T06:01:47;29.70;;;15.13;;
85523;SDS011;75932;48.616;9.270;2024-02-28T06:04:12;29.03;;;17.23;;
85523;SDS011;75932;48.616;9.270;2024-02-28T06:06:38;27.05;;;15.75;;
85523;SDS011;75932;48.616;9.270;2024-02-28T06:09:03;27.33;;;15.88;;
85523;SDS011;75932;48.616;9.270;2024-02-28T06:11:32;29.13;;;18.20;;
85523;SDS011;75932;48.616;9.270;2024-02-28T06:13:58;24.80;;;16.25;;
85523;SDS011;75932;48.616;9.270;2024-02-28T06:16:23;28.00;;;17.58;;
85523;SDS011;75932;48.616;9.270;2024-02-28T06:18:49;28.98;;;17.70;;
85523;SDS011;75932;48.616;9.270;2024-02-28T06:21:14;30.17;;;16.40;;
85523;SDS011;75932;48.616;9.270;2024-02-28T06:23:40;23.60;;;14.20;;
85523;SDS011;75932;48.616;9.270;2024-02-28T06:26:08;29.80;;;20.35;;
85523;SDS011;75932;48.616;9.270;2024-02-28T06:28:40;25.92;;;17.25;;
85523;SDS011;75932;48.616;9.270;2024-02-28T06:31:11;29.00;;;16.30;;
85523;SDS011;75932;48.616;9.270;2024-02-28T06:33:37;27.10;;;17.45;;
85523;SDS011;75932;48.616;9.270;2024-02-28T06:36:02;30.13;;;17.47;;
85523;SDS011;75932;48.616;9.270;2024-02-28T06:38:28;26.52;;;15.43;;
85523;SDS011;75932;48.616;9.270;2024-02-28T06:40:53;29.00;;;15.23;;
85523;SDS011;75932;48.616;9.270;2024-02-28T06:43:19;28.00;;;16.60;;
85523;SDS011;75932;48.616;9.270;2024-02-28T06:45:44;29.20;;;15.40;;
85523;SDS011;75932;48.616;9.270;2024-02-28T06:48:09;28.40;;;16.97;;
85523;SDS011;75932;48.616;9.270;2024-02-28T06:50:34;31.27;;;16.00;;
85523;SDS011;75932;48.616;9.270;2024-02-28T06:53:00;30.67;;;17.07;;
85523;SDS011;75932;48.616;9.270;2024-02-28T06:55:25;27.90;;;15.67;;
85523;SDS011;75932;48.616;9.270;2024-02-28T06:57:50;31.63;;;14.93;;
85523;SDS011;75932;48.616;9.270;2024-02-28T07:00:16;28.07;;;16.10;;
85523;SDS011;75932;48.616;9.270;2024-02-28T07:02:43;29.25;;;15.88;;
85523;SDS011;75932;48.616;9.270;2024-02-28T07:05:11;30.60;;;16.40;;
85523;SDS011;75932;48.616;9.270;2024-02-28T07:07:38;26.33;;;16.27;;
85523;SDS011;75932;48.616;9.270;2024-02-28T07:10:06;31.88;;;17.30;;
85523;SDS011;75932;48.616;9.270;2024-02-28T07:12:32;30.77;;;17.67;;
85523;SDS011;75932;48.616;9.270;2024-02-28T07:14:57;26.75;;;17.58;;
85523;SDS011;75932;48.616;9.270;2024-02-28T07:17:22;28.33;;;15.87;;
85523;SDS011;75932;48.616;9.270;2024-02-28T07:19:48;26.10;;;17.00;;
85523;SDS011;75932;48.616;9.270;2024-02-28T07:22:13;31.58;;;15.60;;
85523;SDS011;75932;48.616;9.270;2024-02-28T07:24:38;29.73;;;16.00;;
85523;SDS011;75932;48.616;9.270;2024-02-28T07:27:04;28.60;;;19.08;;
85523;SDS011;75932;48.616;9.270;2024-02-28T07:29:29;26.98;;;15.23;;
85523;SDS011;75932;48.616;9.270;2024-02-28T07:31:54;25.43;;;15.57;;
85523;SDS011;75932;48.616;9.270;2024-02-28T07:34:20;27.27;;;17.03;;
85523;SDS011;75932;48.616;9.270;2024-02-28T07:36:45;28.73;;;15.60;;
85523;SDS011;75932;48.616;9.270;2024-02-28T07:39:10;30.93;;;17.57;;
85523;SDS011;75932;48.616;9.270;2024-02-28T07:41:38;26.23;;;17.00;;
85523;SDS011;75932;48.616;9.270;2024-02-28T07:44:09;27.42;;;15.98;;
85523;SDS011;75932;48.616;9.270;2024-02-28T07:46:34;27.48;;;14.57;;
85523;SDS011;75932;48.616;9.270;2024-02-28T07:49:00;23.50;;;13.97;;
85523;SDS011;75932;48.616;9.270;2024-02-28T07:51:26;25.58;;;17.92;;
85523;SDS011;75932;48.616;9.270;2024-02-28T07:53:51;26.40;;;16.17;;
85523;SDS011;75932;48.616;9.270;2024-02-28T07:56:17;31.33;;;15.83;;
85523;SDS011;75932;48.616;9.270;2024-02-28T07:58:46;31.33;;;16.38;;
85523;SDS011;75932;48.616;9.270;2024-02-28T08:01:11;28.45;;;16.52;;
85523;SDS011;75932;48.616;9.270;2024-02-28T08:03:37;33.87;;;19.70;;
85523;SDS011;75932;48.616;9.270;2024-02-28T08:06:02;29.10;;;16.27;;
85523;SDS011;75932;48.616;9.270;2024-02-28T08:08:31;28.95;;;16.20;;
85523;SDS011;75932;48.616;9.270;2024-02-28T08:10:56;28.17;;;15.70;;
85523;SDS011;75932;48.616;9.270;2024-02-28T08:13:22;28.38;;;16.20;;
85523;SDS011;75932;48.616;9.270;2024-02-28T08:15:47;27.97;;;17.23;;
85523;SDS011;75932;48.616;9.270;2024-02-28T08:18:12;26.25;;;15.13;;
85523;SDS011;75932;48.616;9.270;2024-02-28T08:20:38;27.50;;;15.67;;
85523;SDS011;75932;48.616;9.270;2024-02-28T08:23:04;28.10;;;18.27;;
85523;SDS011;75932;48.616;9.270;2024-02-28T08:25:30;28.98;;;15.13;;
85523;SDS011;75932;48.616;9.270;2024-02-28T08:27:55;27.30;;;18.20;;
85523;SDS011;75932;48.616;9.270;2024-02-28T08:30:21;27.00;;;14.77;;
85523;SDS011;75932;48.616;9.270;2024-02-28T08:32:46;21.08;;;13.82;;
85523;SDS011;75932;48.616;9.270;2024-02-28T08:35:12;26.80;;;16.77;;
85523;SDS011;75932;48.616;9.270;2024-02-28T08:37:40;28.07;;;15.10;;
85523;SDS011;75932;48.616;9.270;2024-02-28T08:40:06;26.45;;;16.05;;
85523;SDS011;75932;48.616;9.270;2024-02-28T08:42:32;31.55;;;16.92;;
85523;SDS011;75932;48.616;9.270;2024-02-28T08:44:57;26.67;;;15.33;;
85523;SDS011;75932;48.616;9.270;2024-02-28T08:47:24;24.23;;;14.15;;
85523;SDS011;75932;48.616;9.270;2024-02-28T08:49:51;25.15;;;14.75;;
85523;SDS011;75932;48.616;9.270;2024-02-28T08:52:19;25.33;;;15.40;;
85523;SDS011;75932;48.616;9.270;2024-02-28T08:54:45;26.98;;;15.43;;
85523;SDS011;75932;48.616;9.270;2024-02-28T08:57:11;23.17;;;15.32;;
85523;SDS011;75932;48.616;9.270;2024-02-28T08:59:36;25.58;;;14.95;;
85523;SDS011;75932;48.616;9.270;2024-02-28T09:02:02;24.10;;;15.95;;
85523;SDS011;75932;48.616;9.270;2024-02-28T09:04:28;23.73;;;12.90;;
85523;SDS011;75932;48.616;9.270;2024-02-28T09:06:53;23.97;;;14.97;;
85523;SDS011;75932;48.616;9.270;2024-02-28T09:09:19;23.15;;;14.07;;
85523;SDS011;75932;48.616;9.270;2024-02-28T09:11:44;24.15;;;13.70;;
85523;SDS011;75932;48.616;9.270;2024-02-28T09:14:10;20.90;;;11.18;;
85523;SDS011;75932;48.616;9.270;2024-02-28T09:16:35;25.87;;;14.30;;
85523;SDS011;75932;48.616;9.270;2024-02-28T09:19:00;21.73;;;12.67;;
85523;SDS011;75932;48.616;9.270;2024-02-28T09:21:25;20.20;;;12.60;;
85523;SDS011;75932;48.616;9.270;2024-02-28T09:23:51;25.67;;;14.60;;
85523;SDS011;75932;48.616;9.270;2024-02-28T09:26:16;20.87;;;12.37;;
85523;SDS011;75932;48.616;9.270;2024-02-28T09:28:41;22.55;;;13.98;;
85523;SDS011;75932;48.616;9.270;2024-02-28T09:31:07;17.97;;;13.80;;
85523;SDS011;75932;48.616;9.270;2024-02-28T09:33:32;21.50;;;12.27;;
85523;SDS011;75932;48.616;9.270;2024-02-28T09:35:57;25.27;;;16.03;;
85523;SDS011;75932;48.616;9.270;2024-02-28T09:38:23;20.67;;;13.47;;
85523;SDS011;75932;48.616;9.270;2024-02-28T09:40:48;16.50;;;9.95;;
85523;SDS011;75932;48.616;9.270;2024-02-28T09:43:30;18.77;;;11.18;;
85523;SDS011;75932;48.616;9.270;2024-02-28T09:46:05;18.63;;;11.60;;
85523;SDS011;75932;48.616;9.270;2024-02-28T09:48:31;19.17;;;14.13;;
85523;SDS011;75932;48.616;9.270;2024-02-28T09:50:57;20.20;;;12.65;;
85523;SDS011;75932;48.616;9.270;2024-02-28T09:53:23;21.40;;;12.57;;
85523;SDS011;75932;48.616;9.270;2024-02-28T09:55:49;17.42;;;11.50;;
85523;SDS011;75932;48.616;9.270;2024-02-28T09:58:15;20.08;;;12.85;;
85523;SDS011;75932;48.616;9.270;2024-02-28T10:00:42;21.35;;;14.63;;
85523;SDS011;75932;48.616;9.270;2024-02-28T10:03:10;18.70;;;12.55;;
85523;SDS011;75932;48.616;9.270;2024-02-28T10:05:47;20.10;;;14.50;;
85523;SDS011;75932;48.616;9.270;2024-02-28T10:08:13;22.25;;;13.57;;
85523;SDS011;75932;48.616;9.270;2024-02-28T10:10:44;19.65;;;11.48;;
85523;SDS011;75932;48.616;9.270;2024-02-28T10:13:13;21.25;;;12.63;;
85523;SDS011;75932;48.616;9.270;2024-02-28T10:15:40;21.17;;;12.50;;
85523;SDS011;75932;48.616;9.270;2024-02-28T10:18:06;19.10;;;11.57;;
85523;SDS011;75932;48.616;9.270;2024-02-28T10:20:31;21.60;;;13.15;;
85523;SDS011;75932;48.616;9.270;2024-02-28T10:22:57;22.85;;;12.80;;
85523;SDS011;75932;48.616;9.270;2024-02-28T10:25:22;18.53;;;10.70;;
85523;SDS011;75932;48.616;9.270;2024-02-28T10:27:51;22.30;;;12.88;;
85523;SDS011;75932;48.616;9.270;2024-02-28T10:30:16;24.83;;;13.30;;
85523;SDS011;75932;48.616;9.270;2024-02-28T10:32:50;22.50;;;12.93;;
85523;SDS011;75932;48.616;9.270;2024-02-28T10:35:16;22.40;;;12.27;;
85523;SDS011;75932;48.616;9.270;2024-02-28T10:37:46;18.85;;;11.45;;
85523;SDS011;75932;48.616;9.270;2024-02-28T10:40:15;21.05;;;12.65;;
85523;SDS011;75932;48.616;9.270;2024-02-28T10:42:42;20.98;;;12.60;;
85523;SDS011;75932;48.616;9.270;2024-02-28T10:45:11;25.90;;;14.48;;
85523;SDS011;75932;48.616;9.270;2024-02-28T10:47:38;20.58;;;11.52;;
85523;SDS011;75932;48.616;9.270;2024-02-28T10:50:03;24.23;;;13.70;;
85523;SDS011;75932;48.616;9.270;2024-02-28T10:52:29;22.35;;;13.80;;
85523;SDS011;75932;48.616;9.270;2024-02-28T10:54:58;17.27;;;11.50;;
85523;SDS011;75932;48.616;9.270;2024-02-28T10:57:26;21.75;;;12.65;;
85523;SDS011;75932;48.616;9.270;2024-02-28T10:59:54;22.08;;;13.93;;
85523;SDS011;75932;48.616;9.270;2024-02-28T11:02:20;22.42;;;14.00;;
85523;SDS011;75932;48.616;9.270;2024-02-28T11:04:48;20.67;;;11.73;;
85523;SDS011;75932;48.616;9.270;2024-02-28T11:07:19;22.13;;;13.32;;
85523;SDS011;75932;48.616;9.270;2024-02-28T11:09:46;23.55;;;13.93;;
85523;SDS011;75932;48.616;9.270;2024-02-28T11:12:23;21.80;;;11.70;;
85523;SDS011;75932;48.616;9.270;2024-02-28T11:14:59;21.80;;;12.07;;
85523;SDS011;75932;48.616;9.270;2024-02-28T11:17:28;24.42;;;12.95;;
85523;SDS011;75932;48.616;9.270;2024-02-28T11:19:55;25.25;;;12.57;;
85523;SDS011;75932;48.616;9.270;2024-02-28T11:22:21;19.98;;;11.75;;
85523;SDS011;75932;48.616;9.270;2024-02-28T11:24:47;22.43;;;11.87;;
85523;SDS011;75932;48.616;9.270;2024-02-28T11:27:13;21.40;;;13.02;;
85523;SDS011;75932;48.616;9.270;2024-02-28T11:29:38;23.10;;;13.43;;
85523;SDS011;75932;48.616;9.270;2024-02-28T11:32:04;20.67;;;13.57;;
85523;SDS011;75932;48.616;9.270;2024-02-28T11:34:30;21.48;;;12.25;;
85523;SDS011;75932;48.616;9.270;2024-02-28T11:36:55;21.53;;;12.63;;
85523;SDS011;75932;48.616;9.270;2024-02-28T11:39:23;20.40;;;11.75;;
85523;SDS011;75932;48.616;9.270;2024-02-28T11:41:52;20.13;;;13.63;;
85523;SDS011;75932;48.616;9.270;2024-02-28T11:44:19;22.42;;;13.02;;
85523;SDS011;75932;48.616;9.270;2024-02-28T11:46:45;26.33;;;15.27;;
85523;SDS011;75932;48.616;9.270;2024-02-28T11:49:11;22.10;;;14.10;;
85523;SDS011;75932;48.616;9.270;2024-02-28T11:51:39;22.48;;;12.73;;
85523;SDS011;75932;48.616;9.270;2024-02-28T11:54:05;21.88;;;13.63;;
85523;SDS011;75932;48.616;9.270;2024-02-28T11:56:31;20.55;;;13.27;;
85523;SDS011;75932;48.616;9.270;2024-02-28T11:58:58;25.53;;;14.20;;
85523;SDS011;75932;48.616;9.270;2024-02-28T12:01:36;19.88;;;12.63;;
85523;SDS011;75932;48.616;9.270;2024-02-28T12:04:05;22.40;;;13.85;;
85523;SDS011;75932;48.616;9.270;2024-02-28T12:06:32;22.35;;;12.90;;
85523;SDS011;75932;48.616;9.270;2024-02-28T12:08:59;22.15;;;13.25;;
85523;SDS011;75932;48.616;9.270;2024-02-28T12:11:24;22.80;;;13.70;;
85523;SDS011;75932;48.616;9.270;2024-02-28T12:13:54;21.50;;;15.20;;
85523;SDS011;75932;48.616;9.270;2024-02-28T12:16:24;25.10;;;14.40;;
85523;SDS011;75932;48.616;9.270;2024-02-28T12:18:49;25.92;;;16.63;;
85523;SDS011;75932;48.616;9.270;2024-02-28T12:21:16;20.63;;;12.98;;
85523;SDS011;75932;48.616;9.270;2024-02-28T12:23:41;22.33;;;13.13;;
85523;SDS011;75932;48.616;9.270;2024-02-28T12:26:07;20.98;;;13.25;;
85523;SDS011;75932;48.616;9.270;2024-02-28T12:28:34;21.42;;;13.50;;
85523;SDS011;75932;48.616;9.270;2024-02-28T12:31:00;21.03;;;13.13;;
85523;SDS011;75932;48.616;9.270;2024-02-28T12:33:27;20.90;;;14.48;;
85523;SDS011;75932;48.616;9.270;2024-02-28T12:35:52;19.87;;;11.47;;
85523;SDS011;75932;48.616;9.270;2024-02-28T12:38:18;18.73;;;13.20;;
85523;SDS011;75932;48.616;9.270;2024-02-28T12:40:44;22.75;;;13.88;;
85523;SDS011;75932;48.616;9.270;2024-02-28T12:43:09;20.63;;;13.50;;
85523;SDS011;75932;48.616;9.270;2024-02-28T12:45:35;20.77;;;14.13;;
85523;SDS011;75932;48.616;9.270;2024-02-28T12:48:00;22.87;;;18.77;;
85523;SDS011;75932;48.616;9.270;2024-02-28T12:50:26;20.60;;;11.30;;
85523;SDS011;75932;48.616;9.270;2024-02-28T12:52:52;18.77;;;11.20;;
85523;SDS011;75932;48.616;9.270;2024-02-28T12:55:18;19.67;;;12.60;;
85523;SDS011;75932;48.616;9.270;2024-02-28T12:57:44;19.40;;;11.77;;
85523;SDS011;75932;48.616;9.270;2024-02-28T13:00:10;21.27;;;13.77;;
85523;SDS011;75932;48.616;9.270;2024-02-28T13:02:35;20.08;;;11.85;;
85523;SDS011;75932;48.616;9.270;2024-02-28T13:05:01;20.03;;;12.03;;
85523;SDS011;75932;48.616;9.270;2024-02-28T13:07:26;22.40;;;13.17;;
85523;SDS011;75932;48.616;9.270;2024-02-28T13:09:51;20.43;;;11.90;;
85523;SDS011;75932;48.616;9.270;2024-02-28T13:12:17;25.33;;;16.03;;
85523;SDS011;75932;48.616;9.270;2024-02-28T13:14:42;19.00;;;11.68;;
85523;SDS011;75932;48.616;9.270;2024-02-28T13:17:08;21.90;;;14.63;;
85523;SDS011;75932;48.616;9.270;2024-02-28T13:19:33;25.63;;;16.15;;
85523;SDS011;75932;48.616;9.270;2024-02-28T13:21:58;21.50;;;13.13;;
85523;SDS011;75932;48.616;9.270;2024-02-28T13:24:24;18.73;;;11.70;;
85523;SDS011;75932;48.616;9.270;2024-02-28T13:26:49;22.40;;;13.53;;
85523;SDS011;75932;48.616;9.270;2024-02-28T13:29:14;20.87;;;12.50;;
85523;SDS011;75932;48.616;9.270;2024-02-28T13:31:39;20.20;;;11.83;;
85523;SDS011;75932;48.616;9.270;2024-02-28T13:34:05;23.75;;;12.75;;
85523;SDS011;75932;48.616;9.270;2024-02-28T13:36:30;20.07;;;13.30;;
85523;SDS011;75932;48.616;9.270;2024-02-28T13:38:57;21.42;;;13.55;;
85523;SDS011;75932;48.616;9.270;2024-02-28T13:41:23;23.73;;;14.50;;
85523;SDS011;75932;48.616;9.270;2024-02-28T13:43:48;22.38;;;13.10;;
85523;SDS011;75932;48.616;9.270;2024-02-28T13:46:14;24.20;;;14.13;;
85523;SDS011;75932;48.616;9.270;2024-02-28T13:48:40;18.95;;;11.25;;
85523;SDS011;75932;48.616;9.270;2024-02-28T13:51:05;24.03;;;13.13;;
85523;SDS011;75932;48.616;9.270;2024-02-28T13:53:30;22.80;;;14.50;;
85523;SDS011;75932;48.616;9.270;2024-02-28T13:55:56;21.03;;;14.33;;
85523;SDS011;75932;48.616;9.270;2024-02-28T13:58:21;20.70;;;14.13;;
85523;SDS011;75932;48.616;9.270;2024-02-28T14:00:46;24.70;;;13.27;;
85523;SDS011;75932;48.616;9.270;2024-02-28T14:03:12;20.92;;;12.13;;
85523;SDS011;75932;48.616;9.270;2024-02-28T14:05:39;27.55;;;15.43;;
85523;SDS011;75932;48.616;9.270;2024-02-28T14:08:04;21.60;;;13.68;;
85523;SDS011;75932;48.616;9.270;2024-02-28T14:10:33;24.58;;;15.23;;
85523;SDS011;75932;48.616;9.270;2024-02-28T14:12:58;25.98;;;14.82;;
85523;SDS011;75932;48.616;9.270;2024-02-28T14:15:26;25.00;;;15.05;;